Needles Airport
KEED : now visible

Airfield :











YOU CAN JOIN US ON...

 
LOGIN :

Register | Disclaimer

   EN    FR    IT 

 









Legend :    VFR   Marginal VFR   IFR   Intensive IFR   Very Intensive IFR
Visi :
Ceiling :
>= 8 km
>= 3000ft
5 to 8 km
1000 to 3000 ft
1500m to 5 km
500 to 1000 ft
800 to 1500m
200 to 500 ft
< 800m
< 200 ft
Symbols :   Thunderstorms  Fog  Heavy snow  Heavy precipitations  Wind > 20 kt







- Airport Elevation : 983 ft


KEED - Needles

CURRENT METAR :
  • 260456Z AUTO 20009KT 10SM CLR 38/16 A2980 RMK AO2 SLP052 T03830156 $

EXPIRED METARs :
  • 260356Z AUTO 20007KT 10SM CLR 39/14 A2980 RMK AO2 SLP051 T03890139 $
  • 260256Z AUTO 22009KT 10SM CLR 40/13 A2978 RMK AO2 SLP046 T04000128 55004 $

TAF KEED
Valid from the 26 at 00:00 until the 27 at 00:00 UTC


252320Z 2600/2624 14009KT P6SM FEW140
FM260300 21009KT P6SM SKC
FM261500 VRB05KT P6SM SKC
FM261900 16008KT P6SM FEW140
No reported NOTAMs for that airfield.



MET'MAP, your aeronautical weather chart ! - Copyright ORBIFLY December 2007 - Disclaimer

ORBIFLY MET'MAP TEAM :

Programming & Development : Alexandra Zaïnal
Concept & Development : Baudouin d'Aumeries
Co-Development & Prog : Marc-Olivier Méhu
Technical & hardware support : Manuel Goepfert

Contact : metmap@orbifly.com




SOURCES & CREDITS :

   NOAA       Earth
Advisory